createdAt,value
2022-12-17T17:26:21.395Z,51.212238
2022-12-17T17:27:21.381Z,51.212395
2022-12-17T17:28:21.363Z,51.212784
2022-12-17T17:29:21.367Z,51.212578
2022-12-17T17:30:21.379Z,51.212349
2022-12-17T17:31:21.794Z,51.212334
2022-12-17T17:32:22.408Z,51.212154
2022-12-17T17:33:21.389Z,51.212311
2022-12-17T17:34:21.368Z,51.212265
2022-12-17T17:35:21.347Z,51.212139
2022-12-17T17:36:21.327Z,51.212212
2022-12-17T17:37:21.306Z,51.212219
2022-12-17T17:38:21.327Z,51.212254
2022-12-17T17:39:21.334Z,51.212303
2022-12-17T17:40:21.298Z,51.212265
2022-12-17T17:41:21.319Z,51.212181
2022-12-17T17:42:21.286Z,51.212135
2022-12-17T17:43:21.277Z,51.212074
2022-12-17T17:44:21.275Z,51.212147
2022-12-17T17:45:21.359Z,51.212162
2022-12-17T17:46:21.338Z,51.212208
2022-12-17T17:47:21.259Z,51.212132
2022-12-17T17:48:21.242Z,51.212265
2022-12-17T17:49:21.250Z,51.212326
2022-12-17T17:50:21.222Z,51.212353
2022-12-17T17:51:29.491Z,51.212353
2022-12-17T17:52:23.255Z,51.212364
2022-12-17T17:53:21.227Z,51.212322
2022-12-17T17:54:21.208Z,51.212219
2022-12-17T17:55:21.192Z,51.212273
2022-12-17T17:56:21.217Z,51.212234
2022-12-17T17:57:21.186Z,51.212296
2022-12-17T17:58:21.174Z,51.212318
2022-12-17T17:59:21.176Z,51.212353
2022-12-17T18:00:21.166Z,51.212200
2022-12-17T18:01:21.243Z,51.212208
2022-12-17T18:02:21.212Z,51.212261
2022-12-17T18:03:21.236Z,51.212288
2022-12-17T18:04:21.176Z,51.212139
2022-12-17T18:05:21.137Z,51.212055
2022-12-17T18:06:21.170Z,51.212055
2022-12-17T18:07:26.032Z,51.212208
2022-12-17T18:08:23.158Z,51.212349
2022-12-17T18:09:21.170Z,51.212337
2022-12-17T18:10:21.107Z,51.212448
2022-12-17T18:11:23.276Z,51.212444
2022-12-17T18:12:22.100Z,51.212345
2022-12-17T18:13:21.096Z,51.212109
2022-12-17T18:14:21.081Z,51.212353
2022-12-17T18:15:21.081Z,51.212357
2022-12-17T18:16:21.112Z,51.212318
2022-12-17T18:17:21.070Z,51.212250
2022-12-17T18:18:21.055Z,51.212223
2022-12-17T18:19:21.057Z,51.212273
2022-12-17T18:20:21.045Z,51.212372
2022-12-17T18:21:21.082Z,51.212357
2022-12-17T18:22:21.046Z,51.212246
2022-12-17T18:23:21.023Z,51.212238
2022-12-17T18:24:21.013Z,51.212376
2022-12-17T18:25:21.014Z,51.212383
2022-12-17T18:26:21.053Z,51.212315
2022-12-17T18:27:20.998Z,51.212337
2022-12-17T18:28:20.990Z,51.212471
2022-12-17T18:29:21.002Z,51.212444
2022-12-17T18:30:21.019Z,51.212254
2022-12-17T18:31:21.045Z,51.212372
2022-12-17T18:32:20.987Z,51.212307
2022-12-17T18:33:20.996Z,51.212242
2022-12-17T18:34:21.056Z,51.212418
2022-12-17T18:35:20.936Z,51.212307
2022-12-17T18:36:20.939Z,51.212326
2022-12-17T18:37:20.943Z,51.212288
2022-12-17T18:38:20.937Z,51.212219
2022-12-17T18:39:20.930Z,51.212234
2022-12-17T18:40:20.907Z,51.212257
2022-12-17T18:41:20.904Z,51.212238
2022-12-17T18:42:20.894Z,51.212315
2022-12-17T18:43:20.905Z,51.212273
2022-12-17T18:44:20.881Z,51.212280
2022-12-17T18:45:20.883Z,51.212200
2022-12-17T18:46:23.422Z,51.212215
2022-12-17T18:47:21.953Z,51.212280
2022-12-17T18:48:20.869Z,51.212318
2022-12-17T18:49:21.068Z,51.212231
2022-12-17T18:50:20.849Z,51.212227
2022-12-17T18:51:20.877Z,51.212208
2022-12-17T18:52:21.560Z,51.212227
2022-12-17T18:53:21.883Z,51.212219
2022-12-17T18:54:20.825Z,51.212196
2022-12-17T18:55:20.888Z,51.212246
2022-12-17T18:56:44.905Z,51.212265
2022-12-17T18:57:22.826Z,51.212257
2022-12-17T18:58:20.800Z,51.212204
2022-12-17T18:59:25.602Z,51.212242
2022-12-17T19:00:22.800Z,51.212231
2022-12-17T19:01:20.970Z,51.212261
2022-12-17T19:02:20.871Z,51.212284
2022-12-17T19:03:20.961Z,51.212288
2022-12-17T19:04:20.799Z,51.212215
2022-12-17T19:05:20.789Z,51.212254
2022-12-17T19:06:20.756Z,51.212280
2022-12-17T19:07:20.923Z,51.212254
2022-12-17T19:08:20.727Z,51.212318
2022-12-17T19:09:20.766Z,51.212193
2022-12-17T19:10:20.768Z,51.212185
2022-12-17T19:11:20.732Z,51.212219
2022-12-17T19:12:20.714Z,51.212132
2022-12-17T19:13:20.715Z,51.212189
2022-12-17T19:14:20.745Z,51.212173
2022-12-17T19:15:20.726Z,51.212116
2022-12-17T19:16:20.794Z,51.212208
2022-12-17T19:17:20.691Z,51.212196
2022-12-17T19:18:21.693Z,51.212189
2022-12-17T19:19:20.679Z,51.212067
2022-12-17T19:20:20.771Z,51.212170
2022-12-17T19:21:21.445Z,51.212151
2022-12-17T19:22:20.666Z,51.212177
2022-12-17T19:23:20.766Z,51.212093
2022-12-17T19:24:20.661Z,51.212143
2022-12-17T19:25:20.641Z,51.212254
2022-12-17T19:26:20.694Z,51.212189
2022-12-17T19:27:20.722Z,51.212193
2022-12-17T19:28:20.639Z,51.212101
2022-12-17T19:29:20.655Z,51.212311
2022-12-17T19:30:20.630Z,51.212162
2022-12-17T19:31:20.668Z,51.212162
2022-12-17T19:32:20.625Z,51.212074
2022-12-17T19:33:20.632Z,51.212067
2022-12-17T19:34:20.646Z,51.212070
2022-12-17T19:35:22.262Z,51.212250
2022-12-17T19:36:23.888Z,51.212193
2022-12-17T19:37:22.603Z,51.212040
2022-12-17T19:38:20.585Z,51.212093
2022-12-17T19:39:20.563Z,51.212193
2022-12-17T19:40:20.560Z,51.212158
2022-12-17T19:41:20.637Z,51.212193
2022-12-17T19:42:20.585Z,51.212086
2022-12-17T19:43:20.544Z,51.212143
2022-12-17T19:44:20.568Z,51.212189
2022-12-17T19:45:20.577Z,51.212097
2022-12-17T19:46:20.598Z,51.212135
2022-12-17T19:47:20.565Z,51.212040
2022-12-17T19:48:20.501Z,51.212029
2022-12-17T19:49:20.552Z,51.211853
2022-12-17T19:50:20.500Z,51.212074
2022-12-17T19:51:20.496Z,51.212219
2022-12-17T19:52:20.532Z,51.212044
2022-12-17T19:53:20.571Z,51.211765
2022-12-17T19:54:20.484Z,51.211765
2022-12-17T19:55:20.487Z,51.212048
2022-12-17T19:56:20.468Z,51.211922
2022-12-17T19:57:20.470Z,51.211811
2022-12-17T19:58:20.448Z,51.211872
2022-12-17T19:59:20.481Z,51.212318
2022-12-17T20:00:20.434Z,51.212082
2022-12-17T20:01:20.559Z,51.212101
2022-12-17T20:02:20.551Z,51.212208
2022-12-17T20:03:20.505Z,51.211952
2022-12-17T20:04:20.413Z,51.211967
2022-12-17T20:05:20.406Z,51.212002
2022-12-17T20:06:20.390Z,51.211998
2022-12-17T20:07:20.401Z,51.211987
2022-12-17T20:08:22.527Z,51.211994
2022-12-17T20:09:21.401Z,51.211967
2022-12-17T20:10:20.448Z,51.212021
2022-12-17T20:11:20.424Z,51.212009
2022-12-17T20:12:20.361Z,51.211983
2022-12-17T20:13:20.364Z,51.212101
2022-12-17T20:14:20.396Z,51.212070
2022-12-17T20:15:20.342Z,51.212105
2022-12-17T20:16:20.462Z,51.212151
2022-12-17T20:17:20.357Z,51.212105
2022-12-17T20:18:20.377Z,51.212074
2022-12-17T20:19:20.315Z,51.212025
2022-12-17T20:20:20.305Z,51.212055
2022-12-17T20:21:20.316Z,51.212025
2022-12-17T20:22:20.335Z,51.211945
2022-12-17T20:23:20.293Z,51.212013
2022-12-17T20:24:20.294Z,51.212154
2022-12-17T20:25:20.287Z,51.212151
2022-12-17T20:26:20.290Z,51.212158
2022-12-17T20:27:20.261Z,51.212101
2022-12-17T20:28:20.290Z,51.212101
2022-12-17T20:29:20.331Z,51.212090
2022-12-17T20:30:20.320Z,51.212124
2022-12-17T20:31:21.366Z,51.212147
2022-12-17T20:32:20.485Z,51.212040
2022-12-17T20:33:20.288Z,51.212021
2022-12-17T20:34:20.311Z,51.211929
2022-12-17T20:35:20.250Z,51.212044
2022-12-17T20:36:21.299Z,51.212120
2022-12-17T20:37:20.246Z,51.212074
2022-12-17T20:38:20.255Z,51.212063
2022-12-17T20:39:26.139Z,51.212009
2022-12-17T20:40:22.185Z,51.211990
2022-12-17T20:41:20.283Z,51.212002
2022-12-17T20:42:20.203Z,51.212082
2022-12-17T20:43:20.234Z,51.212162
2022-12-17T20:44:20.178Z,51.212135
2022-12-17T20:45:20.199Z,51.211998
2022-12-17T20:46:20.256Z,51.211910
2022-12-17T20:47:20.206Z,51.211945
2022-12-17T20:48:20.186Z,51.212101
2022-12-17T20:49:20.122Z,51.212158
2022-12-17T20:50:20.124Z,51.212082
2022-12-17T20:51:20.126Z,51.212315
2022-12-17T20:52:20.102Z,51.212151
2022-12-17T20:53:20.101Z,51.212193
2022-12-17T20:54:20.119Z,51.212151
2022-12-17T20:55:20.086Z,51.212086
2022-12-17T20:56:20.079Z,51.212002
2022-12-17T20:57:20.057Z,51.211994
2022-12-17T20:58:21.082Z,51.212055
2022-12-17T20:59:20.105Z,51.212097
2022-12-17T21:00:20.063Z,51.212196
2022-12-17T21:01:20.175Z,51.212132
2022-12-17T21:02:20.142Z,51.211987
2022-12-17T21:03:20.129Z,51.212048
2022-12-17T21:04:20.106Z,51.212269
2022-12-17T21:05:21.125Z,51.212181
2022-12-17T21:06:20.016Z,51.212101
2022-12-17T21:07:20.037Z,51.212029
2022-12-17T21:08:20.020Z,51.212139
2022-12-17T21:09:20.186Z,51.212193
2022-12-17T21:10:19.995Z,51.212132
2022-12-17T21:11:19.979Z,51.212097
2022-12-17T21:12:19.984Z,51.212112
2022-12-17T21:13:20.060Z,51.212105
2022-12-17T21:14:20.002Z,51.212067
2022-12-17T21:15:20.156Z,51.212048
2022-12-17T21:16:20.021Z,51.212059
2022-12-17T21:17:20.017Z,51.211971
2022-12-17T21:18:19.954Z,51.211933
2022-12-17T21:19:19.940Z,51.212070
2022-12-17T21:20:19.946Z,51.212177
2022-12-17T21:21:19.944Z,51.212208
2022-12-17T21:22:19.916Z,51.212166
2022-12-17T21:23:19.960Z,51.212112
2022-12-17T21:24:19.915Z,51.212147
2022-12-17T21:25:19.990Z,51.212170
2022-12-17T21:26:19.915Z,51.212040
2022-12-17T21:27:19.903Z,51.212200
2022-12-17T21:28:26.601Z,51.212261
2022-12-17T21:29:20.019Z,51.212196
2022-12-17T21:30:19.894Z,51.212177
2022-12-17T21:31:20.758Z,51.212132
2022-12-17T21:32:19.899Z,51.212170
2022-12-17T21:33:19.874Z,51.212204
2022-12-17T21:34:19.938Z,51.212078
2022-12-17T21:35:19.925Z,51.212116
2022-12-17T21:36:19.868Z,51.212070
2022-12-17T21:37:19.912Z,51.212105
2022-12-17T21:38:19.828Z,51.212173
2022-12-17T21:39:19.901Z,51.212074
2022-12-17T21:40:20.544Z,51.212063
2022-12-17T21:41:19.848Z,51.212002
2022-12-17T21:42:19.800Z,51.212128
2022-12-17T21:43:19.781Z,51.212189
2022-12-17T21:44:19.775Z,51.212147
2022-12-17T21:45:19.781Z,51.212055
2022-12-17T21:46:19.945Z,51.212139
2022-12-17T21:47:19.796Z,51.212162
2022-12-17T21:48:19.748Z,51.212093
2022-12-17T21:49:19.780Z,51.212128
2022-12-17T21:50:20.116Z,51.212120
2022-12-17T21:51:19.736Z,51.212078
2022-12-17T21:52:19.728Z,51.212166
2022-12-17T21:53:19.741Z,51.212135
2022-12-17T21:54:20.328Z,51.212101
2022-12-17T21:55:19.712Z,51.212181
2022-12-17T21:56:19.694Z,51.212215
2022-12-17T21:57:19.687Z,51.212193
2022-12-17T21:58:19.691Z,51.212162
2022-12-17T21:59:19.689Z,51.212090
2022-12-17T22:00:19.702Z,51.212109
2022-12-17T22:01:20.049Z,51.212162
2022-12-17T22:02:19.842Z,51.212193
2022-12-17T22:03:19.654Z,51.212135
2022-12-17T22:04:19.702Z,51.212063
2022-12-17T22:05:19.700Z,51.212082
2022-12-17T22:06:19.677Z,51.212128
2022-12-17T22:07:35.460Z,51.212227
2022-12-17T22:08:20.611Z,51.212120
2022-12-17T22:09:27.063Z,51.212044
2022-12-17T22:10:36.869Z,51.212051
2022-12-17T22:11:20.602Z,51.212021
2022-12-17T22:12:19.589Z,51.211853
2022-12-17T22:13:19.585Z,51.211960
2022-12-17T22:14:21.167Z,51.212116
2022-12-17T22:15:20.565Z,51.212177
2022-12-17T22:16:19.599Z,51.212105
2022-12-17T22:17:19.554Z,51.212090
2022-12-17T22:18:19.593Z,51.212181
2022-12-17T22:19:21.261Z,51.212120
2022-12-17T22:20:19.528Z,51.212109
2022-12-17T22:21:19.550Z,51.212181
2022-12-17T22:22:19.526Z,51.212193
2022-12-17T22:23:19.515Z,51.212189
2022-12-17T22:24:19.517Z,51.212177
2022-12-17T22:25:19.509Z,51.212151
2022-12-17T22:26:19.634Z,51.212109
2022-12-17T22:27:19.494Z,51.212101
2022-12-17T22:28:19.498Z,51.212090
2022-12-17T22:29:19.474Z,51.212124
2022-12-17T22:30:19.479Z,51.212250
2022-12-17T22:31:19.544Z,51.212238
2022-12-17T22:32:19.461Z,51.212120
2022-12-17T22:33:55.521Z,51.212173
2022-12-17T22:35:21.751Z,51.212132
2022-12-17T22:37:26.231Z,51.212208
2022-12-17T22:38:07.603Z,51.212124
2022-12-17T22:39:10.730Z,51.212120
2022-12-17T22:41:10.075Z,51.211941
2022-12-17T22:44:24.700Z,51.212154
2022-12-17T22:44:30.354Z,51.212048
2022-12-17T22:44:35.118Z,51.212147
2022-12-17T22:44:41.674Z,51.212078
2022-12-17T22:44:43.581Z,51.212078
2022-12-17T22:44:44.080Z,51.212032
2022-12-17T22:45:21.493Z,51.212196
2022-12-17T22:46:19.712Z,51.212200
2022-12-17T22:47:19.363Z,51.212189
2022-12-17T22:48:19.365Z,51.212162
2022-12-17T22:49:19.394Z,51.212193
2022-12-17T22:50:23.159Z,51.212036
2022-12-17T22:51:24.111Z,51.212074
2022-12-17T22:52:20.337Z,51.212120
2022-12-17T22:53:19.344Z,51.212116
2022-12-17T22:54:19.329Z,51.212189
2022-12-17T22:55:19.309Z,51.212105
2022-12-17T22:56:39.881Z,51.212093
2022-12-17T22:57:37.492Z,51.212059
2022-12-17T22:58:20.318Z,51.212120
2022-12-17T22:59:19.300Z,51.212074
2022-12-17T23:00:19.344Z,51.212090
2022-12-17T23:01:22.974Z,51.212177
2022-12-17T23:02:20.407Z,51.212105
2022-12-17T23:03:19.412Z,51.212040
2022-12-17T23:04:19.349Z,51.212147
2022-12-17T23:05:19.246Z,51.212231
2022-12-17T23:06:19.247Z,51.212265
2022-12-17T23:07:19.221Z,51.212276
2022-12-17T23:08:19.218Z,51.212139
2022-12-17T23:09:19.541Z,51.212120
2022-12-17T23:10:19.217Z,51.212101
2022-12-17T23:11:19.210Z,51.212238
2022-12-17T23:12:19.207Z,51.212063
2022-12-17T23:13:19.202Z,51.212078
2022-12-17T23:14:19.193Z,51.212143
2022-12-17T23:15:19.189Z,51.212208
2022-12-17T23:16:19.263Z,51.212204
2022-12-17T23:17:19.156Z,51.212219
2022-12-17T23:18:19.165Z,51.212200
2022-12-17T23:19:19.269Z,51.212124
2022-12-17T23:20:19.153Z,51.212158
2022-12-17T23:21:19.140Z,51.212196
2022-12-17T23:22:22.387Z,51.212200
2022-12-17T23:23:20.115Z,51.212212
2022-12-17T23:24:19.119Z,51.212078
2022-12-17T23:25:19.119Z,51.212017
2022-12-17T23:26:19.103Z,51.212177
2022-12-17T23:27:19.109Z,51.212139
2022-12-17T23:28:19.079Z,51.212162
2022-12-17T23:29:19.870Z,51.212143
2022-12-17T23:30:20.102Z,51.212231
2022-12-17T23:31:19.149Z,51.212101
2022-12-17T23:32:19.060Z,51.212090
2022-12-17T23:33:19.067Z,51.212074
2022-12-17T23:34:19.039Z,51.211994
2022-12-17T23:35:19.061Z,51.212135
2022-12-17T23:36:19.039Z,51.212269
2022-12-17T23:37:19.023Z,51.212196
2022-12-17T23:38:19.019Z,51.212143
2022-12-17T23:39:19.052Z,51.212139
2022-12-17T23:40:19.011Z,51.212166
2022-12-17T23:41:19.018Z,51.211937
2022-12-17T23:42:19.004Z,51.212074
2022-12-17T23:43:18.996Z,51.212173
2022-12-17T23:44:18.983Z,51.212223
2022-12-17T23:45:18.993Z,51.212212
2022-12-17T23:46:19.021Z,51.212254
2022-12-17T23:47:18.959Z,51.212238
2022-12-17T23:48:18.958Z,51.212193
2022-12-17T23:49:18.953Z,51.212105
2022-12-17T23:50:18.950Z,51.211933
2022-12-17T23:51:18.949Z,51.212128
2022-12-17T23:52:18.944Z,51.212177
2022-12-17T23:53:18.925Z,51.212116
2022-12-17T23:54:18.937Z,51.212166
2022-12-17T23:55:18.914Z,51.212200
2022-12-17T23:56:18.926Z,51.212238
2022-12-17T23:57:18.898Z,51.212196
2022-12-17T23:58:18.890Z,51.212158
2022-12-17T23:59:18.888Z,51.212173
